createdAt,value
2023-05-18T00:00:34.140Z,3.53
2023-05-18T00:03:02.235Z,2.97
2023-05-18T00:05:34.070Z,3.00
2023-05-18T00:08:01.682Z,2.60
2023-05-18T00:10:29.036Z,2.60
2023-05-18T00:12:56.238Z,2.80
2023-05-18T00:15:23.253Z,3.07
2023-05-18T00:17:50.687Z,2.93
2023-05-18T00:20:18.707Z,2.87
2023-05-18T00:22:48.181Z,2.40
2023-05-18T00:25:15.116Z,2.57
2023-05-18T00:27:42.097Z,2.43
2023-05-18T00:30:09.640Z,2.97
2023-05-18T00:32:36.716Z,2.30
2023-05-18T00:35:04.155Z,2.33
2023-05-18T00:37:31.151Z,2.83
2023-05-18T00:39:58.051Z,2.77
2023-05-18T00:42:25.199Z,2.73
2023-05-18T00:44:52.414Z,2.60
2023-05-18T00:47:21.668Z,2.60
2023-05-18T00:49:48.652Z,2.60
2023-05-18T00:52:16.359Z,2.70
2023-05-18T00:54:44.207Z,2.90
2023-05-18T00:57:11.448Z,2.63
2023-05-18T00:59:39.504Z,2.90
2023-05-18T01:02:06.935Z,2.80
2023-05-18T01:04:34.118Z,2.97
2023-05-18T01:07:06.533Z,2.87
2023-05-18T01:09:34.826Z,2.73
2023-05-18T01:12:29.477Z,2.70
2023-05-18T01:15:12.328Z,3.33
2023-05-18T01:18:00.898Z,2.90
2023-05-18T01:20:42.570Z,2.80
2023-05-18T01:23:45.317Z,2.97
2023-05-18T01:26:16.335Z,2.63
2023-05-18T01:28:46.790Z,2.70
2023-05-18T01:31:16.470Z,3.17
2023-05-18T01:33:46.775Z,2.77
2023-05-18T01:36:13.928Z,2.50
2023-05-18T01:38:43.928Z,2.70
2023-05-18T01:41:22.857Z,2.67
2023-05-18T01:44:22.689Z,2.73
2023-05-18T01:47:14.643Z,2.40
2023-05-18T01:50:09.461Z,2.80
2023-05-18T01:53:08.579Z,2.60
2023-05-18T01:55:37.961Z,2.40
2023-05-18T01:58:09.158Z,2.57
2023-05-18T02:00:37.269Z,2.40
2023-05-18T02:03:06.341Z,2.80
2023-05-18T02:05:34.071Z,2.80
2023-05-18T02:08:01.086Z,3.03
2023-05-18T02:10:28.170Z,2.83
2023-05-18T02:12:55.108Z,2.60
2023-05-18T02:15:22.262Z,2.60
2023-05-18T02:17:49.724Z,3.17
2023-05-18T02:20:19.685Z,3.10
2023-05-18T02:22:46.890Z,2.80
2023-05-18T02:25:13.887Z,2.80
2023-05-18T02:27:41.161Z,2.90
2023-05-18T02:30:08.958Z,2.77
2023-05-18T02:32:39.324Z,3.27
2023-05-18T02:35:08.560Z,2.97
2023-05-18T02:37:39.961Z,2.30
2023-05-18T02:40:12.646Z,3.20
2023-05-18T02:42:40.791Z,2.97
2023-05-18T02:45:09.075Z,2.90
2023-05-18T02:47:36.564Z,2.93
2023-05-18T02:50:03.942Z,2.90
2023-05-18T02:52:34.023Z,2.90
2023-05-18T02:55:01.394Z,3.00
2023-05-18T02:57:47.101Z,3.00
2023-05-18T03:00:18.167Z,2.60
2023-05-18T03:02:48.499Z,2.77
2023-05-18T03:05:23.751Z,2.77
2023-05-18T03:07:52.259Z,2.80
2023-05-18T03:10:22.758Z,3.00
2023-05-18T03:12:50.562Z,3.03
2023-05-18T03:15:17.775Z,3.03
2023-05-18T03:17:45.779Z,3.30
2023-05-18T03:20:15.499Z,3.07
2023-05-18T03:22:42.944Z,3.40
2023-05-18T03:25:09.948Z,3.30
2023-05-18T03:27:37.976Z,3.07
2023-05-18T03:30:06.503Z,3.00
2023-05-18T03:32:34.120Z,3.23
2023-05-18T03:35:01.916Z,2.67
2023-05-18T03:37:29.953Z,2.67
2023-05-18T03:40:10.969Z,3.00
2023-05-18T03:42:39.357Z,2.60
2023-05-18T03:45:10.767Z,3.37
2023-05-18T03:47:39.110Z,3.00
2023-05-18T03:50:08.139Z,3.03
2023-05-18T03:52:36.344Z,2.93
2023-05-18T03:55:05.086Z,3.13
2023-05-18T03:57:33.258Z,3.43
2023-05-18T04:00:07.543Z,2.93
2023-05-18T04:02:44.167Z,3.00
2023-05-18T04:05:15.333Z,2.80
2023-05-18T04:07:46.711Z,3.17
2023-05-18T04:10:14.697Z,3.00
2023-05-18T04:12:44.504Z,3.33
2023-05-18T04:15:14.675Z,3.10
2023-05-18T04:17:46.033Z,3.00
2023-05-18T04:20:14.086Z,2.70
2023-05-18T04:22:46.798Z,3.30
2023-05-18T04:25:15.890Z,3.27
2023-05-18T04:27:45.589Z,3.50
2023-05-18T04:30:14.206Z,2.83
2023-05-18T04:32:43.261Z,3.37
2023-05-18T04:35:11.751Z,3.10
2023-05-18T04:37:43.297Z,3.20
2023-05-18T04:40:17.572Z,3.40
2023-05-18T04:42:48.020Z,3.13
2023-05-18T04:45:20.659Z,3.60
2023-05-18T04:47:54.093Z,3.00
2023-05-18T04:50:25.624Z,3.13
2023-05-18T04:52:53.916Z,2.73
2023-05-18T04:55:27.643Z,3.00
2023-05-18T04:57:58.024Z,3.03
2023-05-18T05:00:28.939Z,3.33
2023-05-18T05:02:57.783Z,3.20
2023-05-18T05:05:26.102Z,2.97
2023-05-18T05:07:56.181Z,3.17
2023-05-18T05:10:24.218Z,3.30
2023-05-18T05:12:54.673Z,3.30
2023-05-18T05:15:21.639Z,3.27
2023-05-18T05:17:50.802Z,3.00
2023-05-18T05:20:18.481Z,3.47
2023-05-18T05:22:45.769Z,3.80
2023-05-18T05:25:16.225Z,3.47
2023-05-18T05:27:43.307Z,4.37
2023-05-18T05:30:11.198Z,3.23
2023-05-18T05:32:39.760Z,3.23
2023-05-18T05:35:07.616Z,3.20
2023-05-18T05:37:36.339Z,3.50
2023-05-18T05:40:06.498Z,3.40
2023-05-18T05:42:38.122Z,3.53
2023-05-18T05:45:06.084Z,3.77
2023-05-18T05:47:38.277Z,3.73
2023-05-18T05:50:07.742Z,3.50
2023-05-18T05:52:35.637Z,3.23
2023-05-18T05:55:04.858Z,3.20
2023-05-18T05:57:32.649Z,3.40
2023-05-18T06:00:00.063Z,3.43
2023-05-18T06:02:27.555Z,2.97
2023-05-18T06:04:55.914Z,3.77
2023-05-18T06:07:22.977Z,3.47
2023-05-18T06:09:50.751Z,3.40
2023-05-18T06:12:18.667Z,3.87
2023-05-18T06:14:45.819Z,3.50
2023-05-18T06:17:12.976Z,3.30
2023-05-18T06:19:40.045Z,3.63
2023-05-18T06:22:07.214Z,3.40
2023-05-18T06:24:43.175Z,3.17
2023-05-18T06:27:28.709Z,3.20
2023-05-18T06:30:11.108Z,3.50
2023-05-18T06:33:14.627Z,3.20
2023-05-18T06:35:42.195Z,3.23
2023-05-18T06:38:09.208Z,3.23
2023-05-18T06:40:36.538Z,3.07
2023-05-18T06:43:03.488Z,3.13
2023-05-18T06:45:39.199Z,3.60
2023-05-18T06:48:18.737Z,3.50
2023-05-18T06:50:45.797Z,3.53
2023-05-18T06:53:13.591Z,3.40
2023-05-18T06:55:40.708Z,3.50
2023-05-18T06:58:07.652Z,3.23
2023-05-18T07:00:35.009Z,3.70
2023-05-18T07:03:03.641Z,3.50
2023-05-18T07:05:30.930Z,2.70
2023-05-18T07:07:58.164Z,2.97
2023-05-18T07:10:25.384Z,2.90
2023-05-18T07:12:52.393Z,3.20
2023-05-18T07:15:19.348Z,3.60
2023-05-18T07:17:46.475Z,2.70
2023-05-18T07:20:13.480Z,3.20
2023-05-18T07:22:40.605Z,3.70
2023-05-18T07:25:08.059Z,3.50
2023-05-18T07:27:35.120Z,3.10
2023-05-18T07:30:02.140Z,3.40
2023-05-18T07:32:31.308Z,2.67
2023-05-18T07:34:59.121Z,2.73
2023-05-18T07:37:26.204Z,3.37
2023-05-18T07:39:53.205Z,3.20
2023-05-18T07:42:20.248Z,3.13
2023-05-18T07:44:47.268Z,3.10
2023-05-18T07:47:15.106Z,3.10
2023-05-18T07:49:43.131Z,2.47
2023-05-18T07:52:10.210Z,2.42
2023-05-18T07:54:37.177Z,2.97
2023-05-18T07:57:04.619Z,3.55
2023-05-18T07:59:31.704Z,2.45
2023-05-18T08:02:00.105Z,2.67
2023-05-18T08:04:27.237Z,2.97
2023-05-18T08:06:55.415Z,2.80
2023-05-18T08:09:23.232Z,3.13
2023-05-18T08:11:51.639Z,3.37
2023-05-18T08:14:18.572Z,2.90
2023-05-18T08:16:46.175Z,3.28
2023-05-18T08:19:13.467Z,3.38
2023-05-18T08:21:40.605Z,2.92
2023-05-18T08:24:09.275Z,3.75
2023-05-18T08:26:36.295Z,3.30
2023-05-18T08:29:09.709Z,3.05
2023-05-18T08:31:38.645Z,2.70
2023-05-18T08:34:07.186Z,2.88
2023-05-18T08:36:37.739Z,2.97
2023-05-18T08:39:05.583Z,3.15
2023-05-18T08:41:42.107Z,2.72
2023-05-18T08:44:29.565Z,2.60
2023-05-18T08:46:56.886Z,2.92
2023-05-18T08:49:27.405Z,2.78
2023-05-18T08:52:04.429Z,2.85
2023-05-18T08:54:33.197Z,2.80
2023-05-18T08:57:01.082Z,2.95
2023-05-18T08:59:33.512Z,2.75
2023-05-18T09:02:01.231Z,2.80
2023-05-18T09:04:28.559Z,2.42
2023-05-18T09:06:56.566Z,2.95
2023-05-18T09:09:25.592Z,2.58
2023-05-18T09:11:53.071Z,2.85
2023-05-18T09:14:25.701Z,2.38
2023-05-18T09:16:53.737Z,2.42
2023-05-18T09:19:20.944Z,2.38
2023-05-18T09:21:48.128Z,2.53
2023-05-18T09:24:15.433Z,2.78
2023-05-18T09:26:42.519Z,2.90
2023-05-18T09:29:24.213Z,2.55
2023-05-18T09:31:52.247Z,2.40
2023-05-18T09:34:19.438Z,3.08
2023-05-18T09:36:57.785Z,2.50
2023-05-18T09:39:24.785Z,2.97
2023-05-18T09:41:59.948Z,3.03
2023-05-18T09:44:36.910Z,2.90
2023-05-18T09:47:14.614Z,2.35
2023-05-18T09:49:41.639Z,2.58
2023-05-18T09:52:11.868Z,2.60
2023-05-18T09:54:40.041Z,3.20
2023-05-18T09:57:10.825Z,2.67
2023-05-18T09:59:38.587Z,2.15
2023-05-18T10:02:08.666Z,2.50
2023-05-18T10:04:41.589Z,2.15
2023-05-18T10:07:17.419Z,2.40
2023-05-18T10:09:46.218Z,2.90
2023-05-18T10:12:22.336Z,2.55
2023-05-18T10:14:49.949Z,2.42
2023-05-18T10:17:17.633Z,2.55
2023-05-18T10:19:46.888Z,2.70
2023-05-18T10:22:19.515Z,2.42
2023-05-18T10:24:52.735Z,2.60
2023-05-18T10:27:27.525Z,2.20
2023-05-18T10:29:59.216Z,2.40
2023-05-18T10:32:30.207Z,1.92
2023-05-18T10:34:57.303Z,2.53
2023-05-18T10:37:30.701Z,2.60
2023-05-18T10:40:01.504Z,2.50
2023-05-18T10:42:31.389Z,2.08
2023-05-18T10:45:00.528Z,2.05
2023-05-18T10:47:32.284Z,2.97
2023-05-18T10:50:04.922Z,2.45
2023-05-18T10:52:33.338Z,2.45
2023-05-18T10:55:01.076Z,2.58
2023-05-18T10:57:41.215Z,2.13
2023-05-18T11:00:10.619Z,2.28
2023-05-18T11:02:42.859Z,2.30
2023-05-18T11:05:11.718Z,2.47
2023-05-18T11:07:39.061Z,2.25
2023-05-18T11:10:11.498Z,2.70
2023-05-18T11:12:40.817Z,2.70
2023-05-18T11:15:09.235Z,2.35
2023-05-18T11:17:37.460Z,2.40
2023-05-18T11:20:09.956Z,2.58
2023-05-18T11:22:58.894Z,2.85
2023-05-18T11:25:25.901Z,2.75
2023-05-18T11:27:55.908Z,2.42
2023-05-18T11:30:36.339Z,2.50
2023-05-18T11:33:18.926Z,2.90
2023-05-18T11:36:02.934Z,2.65
2023-05-18T11:38:55.621Z,2.97
2023-05-18T11:41:35.573Z,3.03
2023-05-18T11:44:17.358Z,3.00
2023-05-18T11:46:59.971Z,2.95
2023-05-18T11:49:33.593Z,3.10
2023-05-18T11:52:08.022Z,2.83
2023-05-18T11:54:53.761Z,3.13
2023-05-18T11:57:34.551Z,3.00
2023-05-18T12:00:09.775Z,2.90
2023-05-18T12:02:45.375Z,2.90
2023-05-18T12:05:14.461Z,3.30
2023-05-18T12:07:42.856Z,2.47
2023-05-18T12:10:29.136Z,2.67
2023-05-18T12:12:58.852Z,2.83
2023-05-18T12:15:28.804Z,2.97
2023-05-18T12:17:58.798Z,3.10
2023-05-18T12:20:26.610Z,2.40
2023-05-18T12:22:56.285Z,2.72
2023-05-18T12:25:28.009Z,3.80
2023-05-18T12:27:56.898Z,2.70
2023-05-18T12:30:34.335Z,3.20
2023-05-18T12:33:04.815Z,3.00
2023-05-18T12:35:33.199Z,2.97
2023-05-18T12:38:01.590Z,2.83
2023-05-18T12:40:48.688Z,3.13
2023-05-18T12:43:15.834Z,2.88
2023-05-18T12:45:45.015Z,3.20
2023-05-18T12:48:14.964Z,2.90
2023-05-18T12:50:53.537Z,2.47
2023-05-18T12:53:20.930Z,3.00
2023-05-18T12:55:59.992Z,2.85
2023-05-18T12:58:26.999Z,3.20
2023-05-18T13:00:54.035Z,2.60
2023-05-18T13:03:22.261Z,2.90
2023-05-18T13:06:08.163Z,3.20
2023-05-18T13:08:36.881Z,3.17
2023-05-18T13:11:14.451Z,3.28
2023-05-18T13:14:04.618Z,2.83
2023-05-18T13:16:35.190Z,3.08
2023-05-18T13:19:06.622Z,3.03
2023-05-18T13:21:35.801Z,3.65
2023-05-18T13:24:04.835Z,3.08
2023-05-18T13:26:31.839Z,2.65
2023-05-18T13:29:00.222Z,2.83
2023-05-18T13:31:29.537Z,3.08
2023-05-18T13:33:57.210Z,3.10
2023-05-18T13:36:24.329Z,3.10
2023-05-18T13:38:52.346Z,2.88
2023-05-18T13:41:19.660Z,3.05
2023-05-18T13:43:46.686Z,3.30
2023-05-18T13:46:13.787Z,3.00
2023-05-18T13:48:40.793Z,2.92
2023-05-18T13:51:07.948Z,3.28
2023-05-18T13:53:34.932Z,2.85
2023-05-18T13:56:01.937Z,2.92
2023-05-18T13:58:28.952Z,2.70
2023-05-18T14:00:56.143Z,2.83
2023-05-18T14:03:24.404Z,3.00
2023-05-18T14:05:51.806Z,3.42
2023-05-18T14:08:18.789Z,2.95
2023-05-18T14:10:45.760Z,2.78
2023-05-18T14:13:12.889Z,3.20
2023-05-18T14:15:39.949Z,2.50
2023-05-18T14:18:07.058Z,2.78
2023-05-18T14:20:34.777Z,2.92
2023-05-18T14:23:04.440Z,2.80
2023-05-18T14:25:31.989Z,2.67
2023-05-18T14:27:58.987Z,3.50
2023-05-18T14:30:26.098Z,2.85
2023-05-18T14:32:53.100Z,2.90
2023-05-18T14:35:20.482Z,2.38
2023-05-18T14:37:47.552Z,2.30
2023-05-18T14:40:15.201Z,2.45
2023-05-18T14:42:42.188Z,2.10
2023-05-18T14:45:10.048Z,2.90
2023-05-18T14:47:37.054Z,2.63
2023-05-18T14:50:04.585Z,3.00
2023-05-18T14:52:31.624Z,2.67
2023-05-18T14:54:58.495Z,2.53
2023-05-18T14:57:26.830Z,2.80
2023-05-18T14:59:54.013Z,2.60
2023-05-18T15:02:21.223Z,2.92
2023-05-18T15:04:48.143Z,2.83
2023-05-18T15:07:15.536Z,2.70
2023-05-18T15:09:42.440Z,2.83
2023-05-18T15:12:09.978Z,2.92
2023-05-18T15:14:38.063Z,2.83
2023-05-18T15:17:07.343Z,2.55
2023-05-18T15:19:34.506Z,3.08
2023-05-18T15:22:01.580Z,2.72
2023-05-18T15:24:28.615Z,2.40
2023-05-18T15:26:55.760Z,2.60
2023-05-18T15:29:22.943Z,3.40
2023-05-18T15:31:51.656Z,2.88
2023-05-18T15:34:18.721Z,3.08
2023-05-18T15:36:46.264Z,4.47
2023-05-18T15:39:13.717Z,2.97
2023-05-18T15:41:40.743Z,3.20
2023-05-18T15:44:07.660Z,2.92
2023-05-18T15:46:35.823Z,3.60
2023-05-18T15:49:03.998Z,2.97
2023-05-18T15:51:32.059Z,3.15
2023-05-18T15:53:59.193Z,3.45
2023-05-18T15:56:26.328Z,3.58
2023-05-18T15:58:53.296Z,3.00
2023-05-18T16:01:20.595Z,3.03
2023-05-18T16:03:47.801Z,2.80
2023-05-18T16:06:15.095Z,2.60
2023-05-18T16:08:42.154Z,3.13
2023-05-18T16:11:09.206Z,3.45
2023-05-18T16:13:36.114Z,3.05
2023-05-18T16:16:03.864Z,3.05
2023-05-18T16:18:30.918Z,2.90
2023-05-18T16:20:58.006Z,3.28
2023-05-18T16:23:25.115Z,3.03
2023-05-18T16:25:52.203Z,3.35
2023-05-18T16:28:19.337Z,2.97
2023-05-18T16:30:46.318Z,3.33
2023-05-18T16:33:13.419Z,2.70
2023-05-18T16:35:40.588Z,2.97
2023-05-18T16:38:07.707Z,3.72
2023-05-18T16:40:34.851Z,3.92
2023-05-18T16:43:01.798Z,3.30
2023-05-18T16:45:28.817Z,2.95
2023-05-18T16:47:56.826Z,3.25
2023-05-18T16:50:24.014Z,3.22
2023-05-18T16:52:51.228Z,2.72
2023-05-18T16:55:18.463Z,2.55
2023-05-18T16:57:45.500Z,2.65
2023-05-18T17:00:13.472Z,3.20
2023-05-18T17:02:40.646Z,2.97
2023-05-18T17:05:11.280Z,3.08
2023-05-18T17:07:39.152Z,3.10
2023-05-18T17:10:06.956Z,2.92
2023-05-18T17:12:33.935Z,2.97
2023-05-18T17:15:02.893Z,3.00
2023-05-18T17:17:30.413Z,3.00
2023-05-18T17:19:57.498Z,2.90
2023-05-18T17:22:24.686Z,2.90
2023-05-18T17:24:51.659Z,3.13
2023-05-18T17:27:19.110Z,2.72
2023-05-18T17:29:46.099Z,2.83
2023-05-18T17:32:13.054Z,2.80
2023-05-18T17:34:40.572Z,3.20
2023-05-18T17:37:07.611Z,3.17
2023-05-18T17:39:34.680Z,2.90
2023-05-18T17:42:01.890Z,2.90
2023-05-18T17:44:29.040Z,2.80
2023-05-18T17:46:57.440Z,2.88
2023-05-18T17:49:24.681Z,2.92
2023-05-18T17:51:52.394Z,2.85
2023-05-18T17:54:19.473Z,2.95
2023-05-18T17:56:46.720Z,2.78
2023-05-18T17:59:13.671Z,2.70
2023-05-18T18:01:43.116Z,3.10
2023-05-18T18:04:10.662Z,3.20
2023-05-18T18:06:37.835Z,2.72
2023-05-18T18:09:05.036Z,3.35
2023-05-18T18:11:32.231Z,3.42
2023-05-18T18:13:59.879Z,2.95
2023-05-18T18:16:27.052Z,3.17
2023-05-18T18:18:56.752Z,3.00
2023-05-18T18:21:23.831Z,2.70
2023-05-18T18:23:50.906Z,2.88
2023-05-18T18:26:17.914Z,3.45
2023-05-18T18:28:44.990Z,2.90
2023-05-18T18:31:12.062Z,3.05
2023-05-18T18:33:39.094Z,2.80
2023-05-18T18:36:07.551Z,2.60
2023-05-18T18:38:34.563Z,3.22
2023-05-18T18:41:04.369Z,2.90
2023-05-18T18:43:31.934Z,2.95
2023-05-18T18:45:59.570Z,3.08
2023-05-18T18:48:27.164Z,2.78
2023-05-18T18:50:54.154Z,2.70
2023-05-18T18:53:21.341Z,3.00
2023-05-18T18:55:48.775Z,3.22
2023-05-18T18:58:16.171Z,2.92
2023-05-18T19:00:43.287Z,3.03
2023-05-18T19:03:10.684Z,2.88
2023-05-18T19:05:38.828Z,3.13
2023-05-18T19:08:06.220Z,3.03
2023-05-18T19:10:34.387Z,2.92
2023-05-18T19:13:05.622Z,2.70
2023-05-18T19:15:34.870Z,2.90
2023-05-18T19:18:03.098Z,3.17
2023-05-18T19:20:30.349Z,2.92
2023-05-18T19:22:57.492Z,2.92
2023-05-18T19:25:25.642Z,3.00
2023-05-18T19:27:53.622Z,2.92
2023-05-18T19:30:22.504Z,3.00
2023-05-18T19:32:53.729Z,2.97
2023-05-18T19:35:23.596Z,3.50
2023-05-18T19:37:51.970Z,2.92
2023-05-18T19:40:21.696Z,3.08
2023-05-18T19:42:48.954Z,2.70
2023-05-18T19:45:16.170Z,2.80
2023-05-18T19:47:43.385Z,2.93
2023-05-18T19:50:10.651Z,3.53
2023-05-18T19:52:37.669Z,3.00
2023-05-18T19:55:05.601Z,4.97
2023-05-18T19:57:33.861Z,4.07
2023-05-18T20:00:01.384Z,4.40
2023-05-18T20:02:28.527Z,3.97
2023-05-18T20:04:55.517Z,4.90
2023-05-18T20:07:22.762Z,4.00
2023-05-18T20:09:52.860Z,3.60
2023-05-18T20:12:19.995Z,3.50
2023-05-18T20:14:47.372Z,3.17
2023-05-18T20:17:15.204Z,3.13
2023-05-18T20:19:49.712Z,4.70
2023-05-18T20:22:20.018Z,5.00
2023-05-18T20:24:47.076Z,5.50
2023-05-18T20:27:15.619Z,4.80
2023-05-18T20:29:42.802Z,4.90
2023-05-18T20:32:09.966Z,4.50
2023-05-18T20:34:37.039Z,4.20
2023-05-18T20:37:04.794Z,4.40
2023-05-18T20:39:32.821Z,4.33
2023-05-18T20:42:00.005Z,5.10
2023-05-18T20:44:28.613Z,4.43
2023-05-18T20:46:55.671Z,3.80
2023-05-18T20:49:24.982Z,4.20
2023-05-18T20:51:52.011Z,4.20
2023-05-18T20:54:21.113Z,4.57
2023-05-18T20:56:48.380Z,4.43
2023-05-18T20:59:16.241Z,3.97
2023-05-18T21:01:43.252Z,4.20
2023-05-18T21:04:12.714Z,5.40
2023-05-18T21:06:40.425Z,4.50
2023-05-18T21:09:08.096Z,4.13
2023-05-18T21:11:35.473Z,4.80
2023-05-18T21:14:02.378Z,4.70
2023-05-18T21:16:29.510Z,4.67
2023-05-18T21:18:56.567Z,4.00
2023-05-18T21:21:23.630Z,4.50
2023-05-18T21:23:50.582Z,5.87
2023-05-18T21:26:17.632Z,5.20
2023-05-18T21:28:44.564Z,4.43
2023-05-18T21:31:11.501Z,5.53
2023-05-18T21:33:38.537Z,4.90
2023-05-18T21:36:06.384Z,5.30
2023-05-18T21:38:33.314Z,5.97
2023-05-18T21:41:00.501Z,4.97
2023-05-18T21:43:27.509Z,4.83
2023-05-18T21:45:54.461Z,4.60
2023-05-18T21:48:21.466Z,4.83
2023-05-18T21:50:48.368Z,4.30
2023-05-18T21:53:15.469Z,3.87
2023-05-18T21:55:42.521Z,4.17
2023-05-18T21:58:09.643Z,3.87
2023-05-18T22:00:38.067Z,4.10
2023-05-18T22:03:05.170Z,4.07
2023-05-18T22:05:32.204Z,3.50
2023-05-18T22:07:59.935Z,4.33
2023-05-18T22:10:26.976Z,3.63
2023-05-18T22:12:54.384Z,4.17
2023-05-18T22:15:22.519Z,3.90
2023-05-18T22:17:49.786Z,3.93
2023-05-18T22:20:17.207Z,3.90
2023-05-18T22:22:44.419Z,4.00
2023-05-18T22:25:13.568Z,4.07
2023-05-18T22:27:40.593Z,4.23
2023-05-18T22:30:08.912Z,4.20
2023-05-18T22:32:36.066Z,3.80
2023-05-18T22:35:03.786Z,3.90
2023-05-18T22:37:30.874Z,4.50
2023-05-18T22:39:57.824Z,4.10
2023-05-18T22:42:25.065Z,4.13
2023-05-18T22:44:52.015Z,4.10
2023-05-18T22:47:21.531Z,4.77
2023-05-18T22:49:49.205Z,5.33
2023-05-18T22:52:20.520Z,4.97
2023-05-18T22:54:47.589Z,4.50
2023-05-18T22:57:14.489Z,4.13
2023-05-18T22:59:41.626Z,3.83
2023-05-18T23:02:08.611Z,4.27
2023-05-18T23:04:35.772Z,4.17
2023-05-18T23:07:04.062Z,4.70
2023-05-18T23:09:31.376Z,4.30
2023-05-18T23:12:01.143Z,4.10
2023-05-18T23:14:32.508Z,4.83
2023-05-18T23:17:03.664Z,5.17
2023-05-18T23:19:30.704Z,5.13
2023-05-18T23:21:57.677Z,5.43
2023-05-18T23:24:24.647Z,4.97
2023-05-18T23:26:51.679Z,4.67
2023-05-18T23:29:18.838Z,4.07
2023-05-18T23:31:46.028Z,4.60
2023-05-18T23:34:13.373Z,4.63
2023-05-18T23:36:42.743Z,4.70
2023-05-18T23:39:10.867Z,4.67
2023-05-18T23:41:39.150Z,4.67
2023-05-18T23:44:06.912Z,4.90
2023-05-18T23:46:34.935Z,5.30
2023-05-18T23:49:02.397Z,5.33
2023-05-18T23:51:33.461Z,5.97
2023-05-18T23:54:03.078Z,5.83
2023-05-18T23:56:30.723Z,6.20
2023-05-18T23:58:58.696Z,5.73
